createdAt,value
2023-04-03T00:00:15.680Z,30.031
2023-04-03T00:05:15.730Z,30.030
2023-04-03T00:10:15.568Z,30.037
2023-04-03T00:15:15.559Z,30.040
2023-04-03T00:20:15.711Z,30.044
2023-04-03T00:25:15.678Z,30.046
2023-04-03T00:30:15.831Z,30.044
2023-04-03T00:35:15.594Z,30.044
2023-04-03T00:40:15.753Z,30.046
2023-04-03T00:45:15.563Z,30.050
2023-04-03T00:50:15.706Z,30.050
2023-04-03T00:55:15.944Z,30.054
2023-04-03T01:00:15.697Z,30.054
2023-04-03T01:05:15.794Z,30.064
2023-04-03T01:10:15.737Z,30.070
2023-04-03T01:15:15.710Z,30.072
2023-04-03T01:20:15.972Z,30.072
2023-04-03T01:25:15.726Z,30.073
2023-04-03T01:30:15.705Z,30.075
2023-04-03T01:35:15.749Z,30.077
2023-04-03T01:40:15.750Z,30.078
2023-04-03T01:45:15.751Z,30.077
2023-04-03T01:50:15.752Z,30.083
2023-04-03T01:55:16.797Z,30.085
2023-04-03T02:00:16.800Z,30.085
2023-04-03T02:05:16.857Z,30.084
2023-04-03T02:10:16.830Z,30.092
2023-04-03T02:15:16.941Z,30.099
2023-04-03T02:20:16.892Z,30.097
2023-04-03T02:25:16.936Z,30.094
2023-04-03T02:30:16.897Z,30.099
2023-04-03T02:35:16.983Z,30.101
2023-04-03T02:40:16.974Z,30.100
2023-04-03T02:45:16.919Z,30.095
2023-04-03T02:50:16.891Z,30.093
2023-04-03T02:55:16.946Z,30.098
2023-04-03T03:00:17.065Z,30.104
2023-04-03T03:05:17.017Z,30.106
2023-04-03T03:10:16.972Z,30.105
2023-04-03T03:15:16.885Z,30.105
2023-04-03T03:20:16.967Z,30.106
2023-04-03T03:25:16.934Z,30.113
2023-04-03T03:30:16.907Z,30.115
2023-04-03T03:35:16.948Z,30.117
2023-04-03T03:40:17.011Z,30.117
2023-04-03T03:45:17.043Z,30.120
2023-04-03T03:50:17.021Z,30.118
2023-04-03T03:55:16.895Z,30.114
2023-04-03T04:00:16.140Z,30.113
2023-04-03T04:05:16.056Z,30.117
2023-04-03T04:10:16.185Z,30.116
2023-04-03T04:15:16.045Z,30.120
2023-04-03T04:20:16.227Z,30.124
2023-04-03T04:25:16.096Z,30.123
2023-04-03T04:30:16.106Z,30.127
2023-04-03T04:35:17.054Z,30.129
2023-04-03T04:40:16.253Z,30.129
2023-04-03T04:45:16.159Z,30.131
2023-04-03T04:50:16.204Z,30.135
2023-04-03T04:55:16.102Z,30.131
2023-04-03T05:00:16.243Z,30.132
2023-04-03T05:05:16.179Z,30.136
2023-04-03T05:10:16.179Z,30.134
2023-04-03T05:15:16.189Z,30.130
2023-04-03T05:20:16.177Z,30.129
2023-04-03T05:25:16.301Z,30.129
2023-04-03T05:30:16.297Z,30.134
2023-04-03T05:35:16.212Z,30.135
2023-04-03T05:40:18.515Z,30.137
2023-04-03T05:45:16.171Z,30.140
2023-04-03T05:50:16.314Z,30.139
2023-04-03T05:55:17.229Z,30.138
2023-04-03T06:00:17.488Z,30.140
2023-04-03T06:05:17.349Z,30.140
2023-04-03T06:10:17.324Z,30.140
2023-04-03T06:15:17.305Z,30.145
2023-04-03T06:20:17.336Z,30.140
2023-04-03T06:25:17.317Z,30.138
2023-04-03T06:30:17.511Z,30.140
2023-04-03T06:35:17.443Z,30.143
2023-04-03T06:40:17.396Z,30.143
2023-04-03T06:45:17.501Z,30.140
2023-04-03T06:50:17.477Z,30.144
2023-04-03T06:55:15.500Z,30.145
2023-04-03T07:00:15.370Z,30.145
2023-04-03T07:05:15.383Z,30.144
2023-04-03T07:10:15.516Z,30.142
2023-04-03T07:15:15.486Z,30.142
2023-04-03T07:20:15.471Z,30.140
2023-04-03T07:25:15.533Z,30.145
2023-04-03T07:30:15.452Z,30.144
2023-04-03T07:35:15.596Z,30.142
2023-04-03T07:40:15.547Z,30.144
2023-04-03T07:45:15.475Z,30.145
2023-04-03T07:50:15.435Z,30.148
2023-04-03T07:55:15.425Z,30.145
2023-04-03T08:00:15.445Z,30.142
2023-04-03T08:05:15.557Z,30.142
2023-04-03T08:10:15.474Z,30.144
2023-04-03T08:15:15.596Z,30.145
2023-04-03T08:20:15.982Z,30.145
2023-04-03T08:25:15.594Z,30.146
2023-04-03T08:30:15.693Z,30.145
2023-04-03T08:35:15.592Z,30.142
2023-04-03T08:40:15.594Z,30.143
2023-04-03T08:45:15.565Z,30.140
2023-04-03T08:50:15.642Z,30.135
2023-04-03T08:55:15.673Z,30.139
2023-04-03T09:00:15.622Z,30.141
2023-04-03T09:05:15.677Z,30.133
2023-04-03T09:10:15.672Z,30.137
2023-04-03T09:15:18.015Z,30.139
2023-04-03T09:20:16.433Z,30.138
2023-04-03T09:25:15.821Z,30.138
2023-04-03T09:30:15.685Z,30.141
2023-04-03T09:35:20.660Z,30.140
2023-04-03T09:40:15.963Z,30.141
2023-04-03T09:45:15.705Z,30.145
2023-04-03T09:50:15.974Z,30.146
2023-04-03T09:55:18.884Z,30.150
2023-04-03T10:00:15.715Z,30.159
2023-04-03T10:05:15.854Z,30.158
2023-04-03T10:10:15.939Z,30.162
2023-04-03T10:15:15.737Z,30.167
2023-04-03T10:20:16.073Z,30.173
2023-04-03T10:25:15.826Z,30.176
2023-04-03T10:30:15.862Z,30.173
2023-04-03T10:35:15.849Z,30.172
2023-04-03T10:40:15.849Z,30.178
2023-04-03T10:45:15.916Z,30.181
2023-04-03T10:50:16.113Z,30.186
2023-04-03T10:55:15.892Z,30.190
2023-04-03T11:00:16.135Z,30.190
2023-04-03T11:05:15.941Z,30.191
2023-04-03T11:10:16.051Z,30.197
2023-04-03T11:15:16.193Z,30.197
2023-04-03T11:20:15.971Z,30.196
2023-04-03T11:25:15.933Z,30.194
2023-04-03T11:30:15.961Z,30.198
2023-04-03T11:35:16.178Z,30.195
2023-04-03T11:40:15.993Z,30.197
2023-04-03T11:45:16.017Z,30.202
2023-04-03T11:50:16.082Z,30.206
2023-04-03T11:55:15.929Z,30.204
2023-04-03T12:00:16.053Z,30.204
2023-04-03T12:05:16.015Z,30.210
2023-04-03T12:10:28.630Z,30.214
2023-04-03T12:15:16.282Z,30.215
2023-04-03T12:20:16.076Z,30.216
2023-04-03T12:25:16.045Z,30.219
2023-04-03T12:30:16.104Z,30.224
2023-04-03T12:35:16.194Z,30.228
2023-04-03T12:40:16.147Z,30.233
2023-04-03T12:45:16.064Z,30.235
2023-04-03T12:50:16.110Z,30.232
2023-04-03T12:55:16.236Z,30.233
2023-04-03T13:00:16.089Z,30.225
2023-04-03T13:05:16.179Z,30.219
2023-04-03T13:10:16.199Z,30.212
2023-04-03T13:15:16.294Z,30.207
2023-04-03T13:20:16.247Z,30.210
2023-04-03T13:25:16.202Z,30.213
2023-04-03T13:30:16.168Z,30.216
2023-04-03T13:35:18.825Z,30.219
2023-04-03T13:40:16.223Z,30.226
2023-04-03T13:45:16.279Z,30.224
2023-04-03T13:50:16.372Z,30.222
2023-04-03T13:55:24.400Z,30.221
2023-04-03T14:00:16.369Z,30.218
2023-04-03T14:05:16.328Z,30.219
2023-04-03T14:10:16.403Z,30.216
2023-04-03T14:15:16.360Z,30.210
2023-04-03T14:20:16.304Z,30.207
2023-04-03T14:25:16.308Z,30.212
2023-04-03T14:30:16.326Z,30.212
2023-04-03T14:35:16.373Z,30.212
2023-04-03T14:40:16.382Z,30.209
2023-04-03T14:45:16.446Z,30.202
2023-04-03T14:50:16.488Z,30.195
2023-04-03T14:55:16.376Z,30.194
2023-04-03T15:00:16.499Z,30.190
2023-04-03T15:05:16.551Z,30.187
2023-04-03T15:10:16.428Z,30.182
2023-04-03T15:15:16.528Z,30.180
2023-04-03T15:20:16.511Z,30.176
2023-04-03T15:25:16.435Z,30.172
2023-04-03T15:30:16.494Z,30.164
2023-04-03T15:35:16.494Z,30.166
2023-04-03T15:40:16.513Z,30.168
2023-04-03T15:45:16.636Z,30.167
2023-04-03T15:50:16.519Z,30.164
2023-04-03T15:55:16.417Z,30.163
2023-04-03T16:00:16.510Z,30.156
2023-04-03T16:05:16.538Z,30.150
2023-04-03T16:10:16.553Z,30.151
2023-04-03T16:15:16.657Z,30.149
2023-04-03T16:20:16.579Z,30.145
2023-04-03T16:25:16.486Z,30.137
2023-04-03T16:30:16.557Z,30.133
2023-04-03T16:35:16.592Z,30.132
2023-04-03T16:40:16.935Z,30.127
2023-04-03T16:45:16.771Z,30.126
2023-04-03T16:50:16.690Z,30.127
2023-04-03T16:55:16.595Z,30.123
2023-04-03T17:00:16.543Z,30.124
2023-04-03T17:05:16.622Z,30.123
2023-04-03T17:10:16.627Z,30.121
2023-04-03T17:15:16.632Z,30.124
2023-04-03T17:20:16.675Z,30.116
2023-04-03T17:25:16.671Z,30.113
2023-04-03T17:30:16.686Z,30.113
2023-04-03T17:35:16.821Z,30.110
2023-04-03T17:40:16.752Z,30.107
2023-04-03T17:45:16.785Z,30.092
2023-04-03T17:50:16.741Z,30.087
2023-04-03T17:55:16.633Z,30.085
2023-04-03T18:00:16.808Z,30.074
2023-04-03T18:05:16.823Z,30.067
2023-04-03T18:10:16.804Z,30.059
2023-04-03T18:15:16.902Z,30.054
2023-04-03T18:20:16.907Z,30.049
2023-04-03T18:25:17.074Z,30.043
2023-04-03T18:30:16.937Z,30.035
2023-04-03T18:35:16.976Z,30.035
2023-04-03T18:40:16.878Z,30.026
2023-04-03T18:45:16.896Z,30.021
2023-04-03T18:50:16.936Z,30.017
2023-04-03T18:55:17.106Z,30.015
2023-04-03T19:00:16.966Z,30.018
2023-04-03T19:05:16.876Z,30.014
2023-04-03T19:10:16.944Z,30.010
2023-04-03T19:15:16.939Z,30.014
2023-04-03T19:20:17.275Z,30.015
2023-04-03T19:25:17.040Z,30.018
2023-04-03T19:30:16.921Z,30.015
2023-04-03T19:35:16.942Z,30.016
2023-04-03T19:40:17.020Z,30.018
2023-04-03T19:45:16.913Z,30.012
2023-04-03T19:50:17.031Z,30.009
2023-04-03T19:55:16.933Z,30.008
2023-04-03T20:00:17.006Z,30.001
2023-04-03T20:05:17.206Z,29.995
2023-04-03T20:10:16.998Z,30.000
2023-04-03T20:15:17.128Z,29.999
2023-04-03T20:20:17.134Z,29.997
2023-04-03T20:25:23.981Z,29.993
2023-04-03T20:30:17.081Z,29.987
2023-04-03T20:35:17.145Z,29.987
2023-04-03T20:40:17.208Z,29.982
2023-04-03T20:45:17.080Z,29.983
2023-04-03T20:50:17.403Z,29.984
2023-04-03T20:55:17.173Z,29.985
2023-04-03T21:00:17.167Z,29.989
2023-04-03T21:05:17.207Z,29.988
2023-04-03T21:10:17.133Z,29.990
2023-04-03T21:15:17.176Z,29.989
2023-04-03T21:20:17.184Z,29.990
2023-04-03T21:25:17.297Z,29.984
2023-04-03T21:30:17.294Z,29.982
2023-04-03T21:35:17.209Z,29.982
2023-04-03T21:40:17.257Z,29.981
2023-04-03T21:45:17.231Z,29.978
2023-04-03T21:50:17.206Z,29.977
2023-04-03T21:55:17.150Z,29.975
2023-04-03T22:00:17.775Z,29.976
2023-04-03T22:05:18.095Z,29.979
2023-04-03T22:10:17.302Z,29.977
2023-04-03T22:15:17.500Z,29.971
2023-04-03T22:20:17.387Z,29.977
2023-04-03T22:25:17.304Z,29.979
2023-04-03T22:30:17.273Z,29.982
2023-04-03T22:35:17.312Z,29.971
2023-04-03T22:40:17.339Z,29.968
2023-04-03T22:45:17.333Z,29.967
2023-04-03T22:50:17.477Z,29.965
2023-04-03T22:55:19.565Z,29.965
2023-04-03T23:00:17.463Z,29.968
2023-04-03T23:05:17.480Z,29.963
2023-04-03T23:10:15.384Z,29.963
2023-04-03T23:15:15.389Z,29.961
2023-04-03T23:20:15.428Z,29.955
2023-04-03T23:25:15.538Z,29.956
2023-04-03T23:30:15.362Z,29.963
2023-04-03T23:35:15.420Z,29.955
2023-04-03T23:40:15.445Z,29.960
2023-04-03T23:45:15.449Z,29.972
2023-04-03T23:50:15.456Z,29.970
2023-04-03T23:55:15.372Z,29.977
